createdAt,value
2017-07-19T00:00:04.418Z,0
2017-07-19T00:01:05.052Z,0
2017-07-19T00:02:04.994Z,0
2017-07-19T00:03:04.710Z,0
2017-07-19T00:04:05.043Z,0
2017-07-19T00:05:05.010Z,0
2017-07-19T00:06:04.682Z,0
2017-07-19T00:07:04.985Z,0
2017-07-19T00:08:05.042Z,0
2017-07-19T00:09:04.326Z,0
2017-07-19T00:10:04.673Z,0
2017-07-19T00:11:04.657Z,0
2017-07-19T00:12:04.331Z,0
2017-07-19T00:13:04.629Z,0
2017-07-19T00:14:04.623Z,0
2017-07-19T00:15:04.956Z,0
2017-07-19T00:16:04.940Z,0
2017-07-19T00:17:04.607Z,0
2017-07-19T00:18:04.296Z,0
2017-07-19T00:19:04.940Z,0
2017-07-19T00:20:04.600Z,0
2017-07-19T00:21:04.589Z,0
2017-07-19T00:22:04.302Z,0
2017-07-19T00:23:04.900Z,0
2017-07-19T00:24:04.262Z,0
2017-07-19T00:25:04.268Z,0
2017-07-19T00:26:05.108Z,0
2017-07-19T00:27:04.897Z,0
2017-07-19T00:28:04.883Z,0
2017-07-19T00:29:04.242Z,0
2017-07-19T00:30:04.550Z,0
2017-07-19T00:31:04.555Z,0
2017-07-19T00:32:04.863Z,0
2017-07-19T00:33:04.866Z,0
2017-07-19T00:34:04.573Z,0
2017-07-19T00:35:04.213Z,0
2017-07-19T00:36:04.536Z,0
2017-07-19T00:37:04.513Z,0
2017-07-19T00:38:04.510Z,0
2017-07-19T00:39:04.186Z,0
2017-07-19T00:40:04.821Z,0
2017-07-19T00:41:04.497Z,0
2017-07-19T00:42:04.514Z,0
2017-07-19T00:43:04.167Z,0
2017-07-19T00:44:04.805Z,0
2017-07-19T00:45:04.161Z,0
2017-07-19T00:46:04.471Z,0
2017-07-19T00:47:04.503Z,0
2017-07-19T00:48:04.789Z,0
2017-07-19T00:49:04.774Z,0
2017-07-19T00:50:04.470Z,0
2017-07-19T00:51:04.141Z,0
2017-07-19T00:52:04.447Z,0
2017-07-19T00:53:04.452Z,0
2017-07-19T00:54:04.432Z,0
2017-07-19T00:55:04.112Z,0
2017-07-19T00:56:04.818Z,0
2017-07-19T00:57:04.445Z,0
2017-07-19T00:58:04.771Z,0
2017-07-19T00:59:04.743Z,0
2017-07-19T01:00:04.088Z,0
2017-07-19T01:01:04.402Z,0
2017-07-19T01:02:04.715Z,0
2017-07-19T01:03:04.082Z,0
2017-07-19T01:04:04.090Z,0
2017-07-19T01:05:04.725Z,0
2017-07-19T01:06:04.698Z,0
2017-07-19T01:07:04.371Z,0
2017-07-19T01:08:04.056Z,0
2017-07-19T01:09:04.038Z,0
2017-07-19T01:10:04.072Z,0
2017-07-19T01:11:04.051Z,0
2017-07-19T01:12:04.670Z,0
2017-07-19T01:13:04.682Z,0
2017-07-19T01:14:04.358Z,0
2017-07-19T01:15:04.015Z,0
2017-07-19T01:16:04.349Z,0
2017-07-19T01:17:04.643Z,0
2017-07-19T01:18:04.367Z,0
2017-07-19T01:19:04.637Z,0
2017-07-19T01:20:04.638Z,0
2017-07-19T01:21:04.352Z,0
2017-07-19T01:22:03.981Z,0
2017-07-19T01:23:04.664Z,0
2017-07-19T01:24:03.998Z,0
2017-07-19T01:25:04.287Z,0
2017-07-19T01:26:04.277Z,0
2017-07-19T01:27:04.604Z,0
2017-07-19T01:28:04.268Z,0
2017-07-19T01:29:03.654Z,0
2017-07-19T01:30:04.274Z,0
2017-07-19T01:31:04.258Z,0
2017-07-19T01:32:04.252Z,0
2017-07-19T01:33:04.591Z,0
2017-07-19T01:34:04.279Z,0
2017-07-19T01:35:04.559Z,0
2017-07-19T01:36:03.910Z,0
2017-07-19T01:37:03.915Z,0
2017-07-19T01:38:04.236Z,0
2017-07-19T01:39:04.563Z,0
2017-07-19T01:40:04.531Z,0
2017-07-19T01:41:03.893Z,0
2017-07-19T01:42:04.523Z,0
2017-07-19T01:43:04.212Z,0
2017-07-19T01:44:04.540Z,0
2017-07-19T01:45:04.517Z,0
2017-07-19T01:46:04.187Z,0
2017-07-19T01:47:03.868Z,0
2017-07-19T01:48:04.167Z,0
2017-07-19T01:49:04.174Z,0
2017-07-19T01:50:03.843Z,0
2017-07-19T01:51:04.155Z,0
2017-07-19T01:52:04.169Z,0
2017-07-19T01:53:04.152Z,0
2017-07-19T01:54:04.144Z,0
2017-07-19T01:55:04.461Z,0
2017-07-19T01:56:04.154Z,0
2017-07-19T01:57:03.814Z,0
2017-07-19T01:58:04.156Z,0
2017-07-19T01:59:04.115Z,0
2017-07-19T02:00:03.995Z,0
2017-07-19T02:01:04.122Z,0
2017-07-19T02:02:04.117Z,0
2017-07-19T02:03:04.099Z,0
2017-07-19T02:04:04.426Z,0
2017-07-19T02:05:04.102Z,0
2017-07-19T02:06:04.427Z,0
2017-07-19T02:07:04.416Z,0
2017-07-19T02:08:04.103Z,0
2017-07-19T02:09:04.392Z,0
2017-07-19T02:10:04.388Z,0
2017-07-19T02:11:04.410Z,0
2017-07-19T02:12:04.100Z,0
2017-07-19T02:13:04.367Z,0
2017-07-19T02:14:04.367Z,0
2017-07-19T02:15:03.738Z,0
2017-07-19T02:16:04.380Z,0
2017-07-19T02:17:04.050Z,0
2017-07-19T02:18:04.030Z,0
2017-07-19T02:19:04.363Z,0
2017-07-19T02:20:04.016Z,0
2017-07-19T02:21:03.695Z,0
2017-07-19T02:22:04.046Z,0
2017-07-19T02:23:04.016Z,0
2017-07-19T02:24:04.023Z,0
2017-07-19T02:25:04.023Z,0
2017-07-19T02:26:04.012Z,0
2017-07-19T02:27:04.301Z,0
2017-07-19T02:28:04.320Z,0
2017-07-19T02:29:03.646Z,0
2017-07-19T02:30:04.013Z,0
2017-07-19T02:31:04.283Z,0
2017-07-19T02:32:03.986Z,0
2017-07-19T02:33:04.277Z,0
2017-07-19T02:34:04.010Z,0
2017-07-19T02:35:03.941Z,0
2017-07-19T02:36:03.941Z,0
2017-07-19T02:37:03.947Z,0
2017-07-19T02:38:03.940Z,0
2017-07-19T02:39:03.940Z,0
2017-07-19T02:40:04.239Z,0
2017-07-19T02:41:04.239Z,4
2017-07-19T02:42:03.942Z,4
2017-07-19T02:43:04.236Z,0
2017-07-19T02:44:04.103Z,0
2017-07-19T02:45:03.902Z,4
2017-07-19T02:46:04.210Z,4
2017-07-19T02:47:03.561Z,4
2017-07-19T02:48:03.892Z,4
2017-07-19T02:49:04.249Z,4
2017-07-19T02:50:03.886Z,8
2017-07-19T02:51:03.551Z,4
2017-07-19T02:52:03.537Z,8
2017-07-19T02:53:03.531Z,12
2017-07-19T02:54:03.851Z,12
2017-07-19T02:55:04.181Z,12
2017-07-19T02:56:03.857Z,12
2017-07-19T02:57:04.165Z,16
2017-07-19T02:58:03.529Z,20
2017-07-19T02:59:04.162Z,24
2017-07-19T03:00:03.496Z,24
2017-07-19T03:01:03.517Z,28
2017-07-19T03:02:03.810Z,28
2017-07-19T03:03:04.129Z,32
2017-07-19T03:04:04.126Z,40
2017-07-19T03:05:04.133Z,44
2017-07-19T03:06:04.146Z,48
2017-07-19T03:07:03.783Z,56
2017-07-19T03:08:04.125Z,64
2017-07-19T03:09:03.457Z,72
2017-07-19T03:10:03.466Z,80
2017-07-19T03:11:03.786Z,92
2017-07-19T03:12:03.784Z,100
2017-07-19T03:13:04.092Z,112
2017-07-19T03:14:03.770Z,124
2017-07-19T03:15:04.076Z,136
2017-07-19T03:16:04.082Z,152
2017-07-19T03:17:03.745Z,164
2017-07-19T03:18:03.747Z,180
2017-07-19T03:19:03.738Z,200
2017-07-19T03:20:04.095Z,220
2017-07-19T03:21:04.061Z,236
2017-07-19T03:22:04.059Z,256
2017-07-19T03:23:03.400Z,276
2017-07-19T03:24:03.701Z,296
2017-07-19T03:25:03.719Z,312
2017-07-19T03:26:03.372Z,340
2017-07-19T03:27:03.376Z,368
2017-07-19T03:28:03.380Z,400
2017-07-19T03:29:04.002Z,428
2017-07-19T03:30:03.672Z,460
2017-07-19T03:31:03.674Z,500
2017-07-19T03:32:03.348Z,532
2017-07-19T03:33:03.996Z,568
2017-07-19T03:34:03.365Z,600
2017-07-19T03:35:03.699Z,628
2017-07-19T03:36:03.989Z,656
2017-07-19T03:37:03.976Z,688
2017-07-19T03:38:03.660Z,716
2017-07-19T03:39:03.305Z,756
2017-07-19T03:40:03.980Z,796
2017-07-19T03:41:03.637Z,824
2017-07-19T03:42:03.941Z,852
2017-07-19T03:43:03.638Z,888
2017-07-19T03:44:03.932Z,940
2017-07-19T03:45:03.600Z,1008
2017-07-19T03:46:03.924Z,1072
2017-07-19T03:47:03.907Z,1140
2017-07-19T03:48:03.582Z,1196
2017-07-19T03:49:03.342Z,1260
2017-07-19T03:50:03.938Z,1336
2017-07-19T03:51:03.913Z,1424
2017-07-19T03:52:03.566Z,1508
2017-07-19T03:53:03.562Z,1592
2017-07-19T03:54:03.929Z,1672
2017-07-19T03:55:03.872Z,1748
2017-07-19T03:56:02.942Z,1808
2017-07-19T03:57:03.558Z,1868
2017-07-19T03:58:03.536Z,1928
2017-07-19T03:59:03.546Z,1988
2017-07-19T04:00:03.205Z,2048
2017-07-19T04:01:03.872Z,2108
2017-07-19T04:02:03.534Z,2152
2017-07-19T04:03:03.859Z,2192
2017-07-19T04:04:03.830Z,2236
2017-07-19T04:05:03.880Z,2272
2017-07-19T04:06:03.199Z,2296
2017-07-19T04:07:03.815Z,2320
2017-07-19T04:08:03.494Z,2344
2017-07-19T04:09:03.496Z,2368
2017-07-19T04:10:03.800Z,2392
2017-07-19T04:11:03.485Z,2428
2017-07-19T04:12:03.480Z,2468
2017-07-19T04:13:03.791Z,2520
2017-07-19T04:14:03.790Z,2584
2017-07-19T04:15:03.474Z,2652
2017-07-19T04:16:03.125Z,2716
2017-07-19T04:17:03.795Z,2768
2017-07-19T04:18:03.765Z,2808
2017-07-19T04:19:02.788Z,2852
2017-07-19T04:20:03.159Z,2896
2017-07-19T04:21:03.761Z,2984
2017-07-19T04:22:02.790Z,3108
2017-07-19T04:23:03.443Z,3264
2017-07-19T04:24:03.441Z,3420
2017-07-19T04:25:03.087Z,3572
2017-07-19T04:26:03.734Z,3716
2017-07-19T04:27:03.081Z,3844
2017-07-19T04:28:03.392Z,3948
2017-07-19T04:29:02.778Z,4028
2017-07-19T04:30:03.392Z,4092
2017-07-19T04:31:03.064Z,4152
2017-07-19T04:32:03.394Z,4228
2017-07-19T04:33:03.396Z,4304
2017-07-19T04:34:03.390Z,4360
2017-07-19T04:35:03.382Z,4400
2017-07-19T04:36:03.372Z,4432
2017-07-19T04:37:03.052Z,4436
2017-07-19T04:38:03.360Z,4384
2017-07-19T04:39:03.671Z,4300
2017-07-19T04:40:03.347Z,4248
2017-07-19T04:41:03.364Z,4240
2017-07-19T04:42:03.336Z,4276
2017-07-19T04:43:03.336Z,4304
2017-07-19T04:44:03.341Z,4372
2017-07-19T04:45:03.009Z,4440
2017-07-19T04:46:03.342Z,4524
2017-07-19T04:47:03.654Z,4592
2017-07-19T04:48:03.343Z,4652
2017-07-19T04:49:03.635Z,4704
2017-07-19T04:50:02.990Z,4768
2017-07-19T04:51:03.625Z,4828
2017-07-19T04:52:03.630Z,4880
2017-07-19T04:53:03.314Z,4916
2017-07-19T04:54:03.296Z,4924
2017-07-19T04:55:03.304Z,4904
2017-07-19T04:56:03.619Z,4860
2017-07-19T04:57:03.639Z,4804
2017-07-19T04:58:02.989Z,4748
2017-07-19T04:59:03.297Z,4704
2017-07-19T05:00:03.272Z,4660
2017-07-19T05:01:03.604Z,4616
2017-07-19T05:02:03.273Z,4588
2017-07-19T05:03:02.953Z,4596
2017-07-19T05:04:03.594Z,4636
2017-07-19T05:05:03.621Z,4688
2017-07-19T05:06:03.594Z,4748
2017-07-19T05:07:02.954Z,4808
2017-07-19T05:08:03.266Z,4872
2017-07-19T05:09:03.276Z,4936
2017-07-19T05:10:03.569Z,4984
2017-07-19T05:11:03.247Z,5020
2017-07-19T05:12:02.950Z,5052
2017-07-19T05:13:02.939Z,5076
2017-07-19T05:14:03.581Z,5072
2017-07-19T05:15:03.608Z,5060
2017-07-19T05:16:03.245Z,5044
2017-07-19T05:17:02.902Z,5032
2017-07-19T05:18:03.258Z,5032
2017-07-19T05:19:02.915Z,5036
2017-07-19T05:20:03.233Z,5036
2017-07-19T05:21:03.222Z,5048
2017-07-19T05:22:03.568Z,5060
2017-07-19T05:23:02.926Z,5048
2017-07-19T05:24:03.546Z,5072
2017-07-19T05:25:02.889Z,5076
2017-07-19T05:26:02.882Z,5100
2017-07-19T05:27:03.205Z,5116
2017-07-19T05:28:02.880Z,5120
2017-07-19T05:29:02.884Z,5136
2017-07-19T05:30:03.224Z,5164
2017-07-19T05:31:03.253Z,5216
2017-07-19T05:32:03.509Z,5272
2017-07-19T05:33:03.211Z,5340
2017-07-19T05:34:03.535Z,5388
2017-07-19T05:35:03.211Z,5448
2017-07-19T05:36:03.203Z,5496
2017-07-19T05:37:03.504Z,5516
2017-07-19T05:38:03.195Z,5544
2017-07-19T05:39:03.173Z,5592
2017-07-19T05:40:03.508Z,5640
2017-07-19T05:41:03.171Z,5676
2017-07-19T05:42:03.495Z,5708
2017-07-19T05:43:03.497Z,5732
2017-07-19T05:44:03.187Z,5748
2017-07-19T05:45:03.191Z,5768
2017-07-19T05:46:03.481Z,5788
2017-07-19T05:47:03.157Z,5824
2017-07-19T05:48:03.163Z,5860
2017-07-19T05:49:03.499Z,5904
2017-07-19T05:50:03.159Z,5952
2017-07-19T05:51:03.169Z,6008
2017-07-19T05:52:03.147Z,6056
2017-07-19T05:53:03.466Z,6096
2017-07-19T05:54:03.142Z,6116
2017-07-19T05:55:03.467Z,6108
2017-07-19T05:56:03.474Z,6076
2017-07-19T05:57:03.134Z,6048
2017-07-19T05:58:03.137Z,6032
2017-07-19T05:59:02.816Z,6040
2017-07-19T06:00:03.131Z,6068
2017-07-19T06:01:03.132Z,6108
2017-07-19T06:02:03.135Z,6148
2017-07-19T06:03:03.463Z,6156
2017-07-19T06:04:03.453Z,6164
2017-07-19T06:05:03.450Z,6160
2017-07-19T06:06:03.443Z,6140
2017-07-19T06:07:03.145Z,6136
2017-07-19T06:08:02.804Z,6144
2017-07-19T06:09:03.436Z,6184
2017-07-19T06:10:03.123Z,6212
2017-07-19T06:11:03.145Z,6244
2017-07-19T06:12:02.795Z,6268
2017-07-19T06:13:03.465Z,6272
2017-07-19T06:14:03.119Z,6264
2017-07-19T06:15:03.113Z,6252
2017-07-19T06:16:03.105Z,6240
2017-07-19T06:17:03.127Z,6244
2017-07-19T06:18:03.428Z,6272
2017-07-19T06:19:03.123Z,6284
2017-07-19T06:20:03.436Z,6320
2017-07-19T06:21:03.102Z,6352
2017-07-19T06:22:03.445Z,6384
2017-07-19T06:23:03.121Z,6416
2017-07-19T06:24:03.426Z,6432
2017-07-19T06:25:03.423Z,6424
2017-07-19T06:26:03.103Z,6396
2017-07-19T06:27:03.424Z,6348
2017-07-19T06:28:03.119Z,6312
2017-07-19T06:29:03.108Z,6272
2017-07-19T06:30:03.103Z,6244
2017-07-19T06:31:03.500Z,6236
2017-07-19T06:32:03.411Z,6236
2017-07-19T06:33:03.440Z,6232
2017-07-19T06:34:03.106Z,6252
2017-07-19T06:35:02.785Z,6336
2017-07-19T06:36:03.100Z,6416
2017-07-19T06:37:03.453Z,6736
2017-07-19T06:38:03.113Z,7232
2017-07-19T06:39:03.101Z,7728
2017-07-19T06:40:03.142Z,11236
2017-07-19T06:41:03.087Z,14840
2017-07-19T06:42:03.136Z,13616
2017-07-19T06:43:03.415Z,14468
2017-07-19T06:44:03.132Z,20224
2017-07-19T06:45:03.416Z,21568
2017-07-19T06:46:03.414Z,18464
2017-07-19T06:47:03.113Z,17056
2017-07-19T06:48:03.429Z,18336
2017-07-19T06:49:03.415Z,25376
2017-07-19T06:50:03.118Z,34816
2017-07-19T06:51:03.088Z,35712
2017-07-19T06:52:03.403Z,35104
2017-07-19T06:53:03.405Z,41056
2017-07-19T06:54:03.096Z,39424
2017-07-19T06:55:03.411Z,26176
2017-07-19T06:56:03.415Z,25600
2017-07-19T06:57:03.619Z,31168
2017-07-19T06:58:03.417Z,31904
2017-07-19T06:59:03.418Z,36800
2017-07-19T07:00:03.129Z,44416
2017-07-19T07:01:03.447Z,45248
2017-07-19T07:02:03.106Z,45952
2017-07-19T07:03:02.808Z,42528
2017-07-19T07:04:03.461Z,40224
2017-07-19T07:05:02.803Z,41984
2017-07-19T07:06:03.472Z,38784
2017-07-19T07:07:03.128Z,37184
2017-07-19T07:08:03.126Z,40192
2017-07-19T07:09:03.457Z,44384
2017-07-19T07:10:03.161Z,45152
2017-07-19T07:11:03.467Z,45792
2017-07-19T07:12:06.068Z,47040
2017-07-19T07:13:02.830Z,45280
2017-07-19T07:14:02.852Z,45184
2017-07-19T07:15:03.183Z,45120
2017-07-19T07:16:03.168Z,44352
2017-07-19T07:17:03.174Z,44544
2017-07-19T07:18:02.860Z,47936
2017-07-19T07:19:03.565Z,50848
2017-07-19T07:20:03.201Z,50112
2017-07-19T07:21:03.567Z,48768
2017-07-19T07:22:03.211Z,48128
2017-07-19T07:23:03.561Z,50880
2017-07-19T07:24:03.556Z,51424
2017-07-19T07:25:03.240Z,51040
2017-07-19T07:26:03.241Z,50176
2017-07-19T07:27:03.584Z,47232
2017-07-19T07:28:02.952Z,45440
2017-07-19T07:29:03.289Z,46624
2017-07-19T07:30:03.623Z,50336
2017-07-19T07:31:03.291Z,52192
2017-07-19T07:32:03.295Z,51552
2017-07-19T07:33:03.007Z,51680
2017-07-19T07:34:03.648Z,55200
2017-07-19T07:35:03.645Z,57856
2017-07-19T07:36:03.014Z,56864
2017-07-19T07:37:03.368Z,53728
2017-07-19T07:38:03.674Z,52832
2017-07-19T07:39:03.365Z,53760
2017-07-19T07:40:03.686Z,51648
2017-07-19T07:41:03.386Z,52416
2017-07-19T07:42:03.054Z,53824
2017-07-19T07:43:03.738Z,55040
2017-07-19T07:44:03.735Z,56288
2017-07-19T07:45:03.435Z,56832
2017-07-19T07:46:03.769Z,57472
2017-07-19T07:47:03.446Z,57184
2017-07-19T07:48:03.449Z,55360
2017-07-19T07:49:03.775Z,36000
2017-07-19T07:50:03.800Z,13776
2017-07-19T07:51:03.481Z,8636
2017-07-19T07:52:03.482Z,8120
2017-07-19T07:53:03.497Z,7848
2017-07-19T07:54:03.819Z,7688
2017-07-19T07:55:03.553Z,7608
2017-07-19T07:56:03.197Z,7556
2017-07-19T07:57:03.547Z,7536
2017-07-19T07:58:03.540Z,7532
2017-07-19T07:59:03.230Z,7520
2017-07-19T08:00:03.558Z,7504
2017-07-19T08:01:03.243Z,7512
2017-07-19T08:02:03.947Z,7516
2017-07-19T08:03:03.265Z,7524
2017-07-19T08:04:03.279Z,7560
2017-07-19T08:05:03.947Z,7584
2017-07-19T08:06:03.615Z,7572
2017-07-19T08:07:03.664Z,7544
2017-07-19T08:08:03.645Z,7516
2017-07-19T08:09:03.645Z,7484
2017-07-19T08:10:03.980Z,7456
2017-07-19T08:11:03.360Z,7440
2017-07-19T08:12:03.672Z,7416
2017-07-19T08:13:04.000Z,7420
2017-07-19T08:14:04.007Z,7464
2017-07-19T08:15:03.376Z,7548
2017-07-19T08:16:04.060Z,7664
2017-07-19T08:17:03.395Z,7736
2017-07-19T08:18:03.398Z,7776
2017-07-19T08:19:04.139Z,7764
2017-07-19T08:20:03.111Z,7760
2017-07-19T08:21:04.064Z,7784
2017-07-19T08:22:03.435Z,7792
2017-07-19T08:23:03.793Z,7852
2017-07-19T08:24:04.096Z,7828
2017-07-19T08:25:03.446Z,7844
2017-07-19T08:26:03.802Z,7832
2017-07-19T08:27:04.155Z,7780
2017-07-19T08:28:03.804Z,7708
2017-07-19T08:29:03.798Z,7668
2017-07-19T08:30:04.134Z,7656
2017-07-19T08:31:03.820Z,7720
2017-07-19T08:32:04.167Z,7824
2017-07-19T08:33:03.846Z,7856
2017-07-19T08:34:04.169Z,7832
2017-07-19T08:35:03.832Z,7820
2017-07-19T08:36:03.838Z,7760
2017-07-19T08:37:03.532Z,7704
2017-07-19T08:38:04.195Z,7636
2017-07-19T08:39:03.885Z,7576
2017-07-19T08:40:04.201Z,7488
2017-07-19T08:41:03.556Z,7476
2017-07-19T08:42:03.875Z,7604
2017-07-19T08:43:04.203Z,7852
2017-07-19T08:44:03.911Z,7804
2017-07-19T08:45:03.577Z,7680
2017-07-19T08:46:03.918Z,7340
2017-07-19T08:47:03.903Z,7132
2017-07-19T08:48:04.238Z,7000
2017-07-19T08:49:03.934Z,6848
2017-07-19T08:50:03.917Z,6612
2017-07-19T08:51:04.267Z,6696
2017-07-19T08:52:03.619Z,7064
2017-07-19T08:53:04.258Z,7300
2017-07-19T08:54:04.265Z,7296
2017-07-19T08:55:04.518Z,7492
2017-07-19T08:56:03.960Z,7372
2017-07-19T08:57:03.987Z,7292
2017-07-19T08:58:03.699Z,7152
2017-07-19T08:59:03.975Z,7064
2017-07-19T09:00:04.006Z,7136
2017-07-19T09:01:03.980Z,7204
2017-07-19T09:02:03.984Z,7248
2017-07-19T09:03:04.314Z,7348
2017-07-19T09:04:04.313Z,7696
2017-07-19T09:05:04.002Z,7720
2017-07-19T09:06:04.345Z,7480
2017-07-19T09:07:04.325Z,7584
2017-07-19T09:08:04.358Z,7556
2017-07-19T09:09:03.709Z,7916
2017-07-19T09:10:03.700Z,8472
2017-07-19T09:11:03.731Z,8776
2017-07-19T09:12:03.717Z,9100
2017-07-19T09:13:04.037Z,9648
2017-07-19T09:14:04.376Z,9860
2017-07-19T09:15:03.729Z,10244
2017-07-19T09:16:04.074Z,10260
2017-07-19T09:17:03.757Z,10044
2017-07-19T09:18:03.424Z,9924
2017-07-19T09:19:04.406Z,9932
2017-07-19T09:20:04.078Z,9724
2017-07-19T09:21:04.074Z,9420
2017-07-19T09:22:04.115Z,9164
2017-07-19T09:23:04.115Z,8696
2017-07-19T09:24:04.110Z,8208
2017-07-19T09:25:03.801Z,7608
2017-07-19T09:26:04.431Z,7460
2017-07-19T09:27:04.129Z,7496
2017-07-19T09:28:04.127Z,7704
2017-07-19T09:29:04.445Z,7952
2017-07-19T09:30:04.171Z,8064
2017-07-19T09:31:04.140Z,8268
2017-07-19T09:32:04.156Z,8324
2017-07-19T09:33:03.832Z,8220
2017-07-19T09:34:04.147Z,7992
2017-07-19T09:35:04.187Z,7832
2017-07-19T09:36:03.871Z,7696
2017-07-19T09:37:04.526Z,7716
2017-07-19T09:38:04.186Z,7712
2017-07-19T09:39:04.534Z,7652
2017-07-19T09:40:04.197Z,7828
2017-07-19T09:41:04.196Z,8176
2017-07-19T09:42:04.198Z,9144
2017-07-19T09:43:04.196Z,9464
2017-07-19T09:44:04.211Z,10392
2017-07-19T09:45:04.215Z,10792
2017-07-19T09:46:04.214Z,11136
2017-07-19T09:47:04.539Z,11552
2017-07-19T09:48:04.231Z,12156
2017-07-19T09:49:04.248Z,11744
2017-07-19T09:50:04.270Z,11232
2017-07-19T09:51:03.946Z,11012
2017-07-19T09:52:04.270Z,11140
2017-07-19T09:53:03.978Z,11600
2017-07-19T09:54:04.600Z,12040
2017-07-19T09:55:04.292Z,11612
2017-07-19T09:56:04.300Z,10472
2017-07-19T09:57:03.645Z,9216
2017-07-19T09:58:04.311Z,8124
2017-07-19T09:59:04.307Z,7416
2017-07-19T10:00:04.334Z,7032
2017-07-19T10:01:04.329Z,6848
2017-07-19T10:02:04.013Z,6752
2017-07-19T10:03:04.350Z,6852
2017-07-19T10:04:04.351Z,6828
2017-07-19T10:05:04.025Z,6904
2017-07-19T10:06:04.687Z,6648
2017-07-19T10:07:04.397Z,7804
2017-07-19T10:08:04.397Z,8376
2017-07-19T10:09:04.710Z,8800
2017-07-19T10:10:04.400Z,9132
2017-07-19T10:11:04.055Z,9328
2017-07-19T10:12:04.762Z,9024
2017-07-19T10:13:04.715Z,8796
2017-07-19T10:14:04.721Z,8320
2017-07-19T10:15:04.426Z,9000
2017-07-19T10:16:04.729Z,8416
2017-07-19T10:17:04.438Z,7816
2017-07-19T10:18:04.441Z,7636
2017-07-19T10:19:04.119Z,6816
2017-07-19T10:20:04.447Z,6408
2017-07-19T10:21:04.459Z,6140
2017-07-19T10:22:04.134Z,5892
2017-07-19T10:23:04.485Z,5892
2017-07-19T10:24:04.139Z,6320
2017-07-19T10:25:04.791Z,6432
2017-07-19T10:26:04.173Z,6564
2017-07-19T10:27:04.165Z,6500
2017-07-19T10:28:04.507Z,6380
2017-07-19T10:29:04.504Z,6196
2017-07-19T10:30:03.879Z,6296
2017-07-19T10:31:04.513Z,6332
2017-07-19T10:32:04.233Z,6804
2017-07-19T10:33:04.877Z,6732
2017-07-19T10:34:04.524Z,6820
2017-07-19T10:35:04.530Z,6516
2017-07-19T10:36:04.213Z,6340
2017-07-19T10:37:04.241Z,6168
2017-07-19T10:38:04.867Z,5968
2017-07-19T10:39:04.867Z,5872
2017-07-19T10:40:04.901Z,5744
2017-07-19T10:41:04.269Z,5580
2017-07-19T10:42:04.894Z,4948
2017-07-19T10:43:04.250Z,4720
2017-07-19T10:44:04.902Z,4672
2017-07-19T10:45:04.943Z,5144
2017-07-19T10:46:04.913Z,5088
2017-07-19T10:47:03.956Z,5572
2017-07-19T10:48:04.926Z,6024
2017-07-19T10:49:04.927Z,6040
2017-07-19T10:50:04.619Z,5932
2017-07-19T10:51:04.973Z,5588
2017-07-19T10:52:04.943Z,5512
2017-07-19T10:53:04.658Z,5680
2017-07-19T10:54:04.650Z,5720
2017-07-19T10:55:04.340Z,5568
2017-07-19T10:56:04.650Z,5584
2017-07-19T10:57:04.974Z,5480
2017-07-19T10:58:04.984Z,5336
2017-07-19T10:59:04.681Z,5384
2017-07-19T11:00:04.682Z,5528
2017-07-19T11:01:04.683Z,5568
2017-07-19T11:02:04.354Z,5556
2017-07-19T11:03:04.704Z,5664
2017-07-19T11:04:05.026Z,5764
2017-07-19T11:05:04.719Z,5796
2017-07-19T11:06:05.042Z,5944
2017-07-19T11:07:05.028Z,6276
2017-07-19T11:08:04.733Z,6528
2017-07-19T11:09:05.083Z,6532
2017-07-19T11:10:05.051Z,6268
2017-07-19T11:11:04.732Z,5748
2017-07-19T11:12:04.430Z,5896
2017-07-19T11:13:05.079Z,6104
2017-07-19T11:14:05.104Z,6140
2017-07-19T11:15:04.777Z,5544
2017-07-19T11:16:05.096Z,5480
2017-07-19T11:17:04.965Z,5472
2017-07-19T11:18:04.797Z,5576
2017-07-19T11:19:05.123Z,6492
2017-07-19T11:20:05.120Z,6168
2017-07-19T11:21:04.792Z,6200
2017-07-19T11:22:05.117Z,6600
2017-07-19T11:23:04.481Z,6832
2017-07-19T11:24:04.806Z,7304
2017-07-19T11:25:04.847Z,8216
2017-07-19T11:26:04.501Z,8680
2017-07-19T11:27:05.170Z,8872
2017-07-19T11:28:04.523Z,9412
2017-07-19T11:29:04.201Z,9752
2017-07-19T11:30:05.197Z,10384
2017-07-19T11:31:05.185Z,10736
2017-07-19T11:32:04.879Z,10680
2017-07-19T11:33:04.893Z,10744
2017-07-19T11:34:04.913Z,10800
2017-07-19T11:35:04.904Z,10312
2017-07-19T11:36:05.222Z,9540
2017-07-19T11:37:04.602Z,8352
2017-07-19T11:38:04.902Z,8196
2017-07-19T11:39:05.242Z,8076
2017-07-19T11:40:04.954Z,7836
2017-07-19T11:41:05.239Z,8124
2017-07-19T11:42:05.249Z,8092
2017-07-19T11:43:05.276Z,8272
2017-07-19T11:44:05.252Z,8212
2017-07-19T11:45:04.654Z,8268
2017-07-19T11:46:05.290Z,7944
2017-07-19T11:47:04.671Z,7780
2017-07-19T11:48:04.964Z,8400
2017-07-19T11:49:04.964Z,8208
2017-07-19T11:50:05.300Z,8360
2017-07-19T11:51:04.656Z,8392
2017-07-19T11:52:04.981Z,8332
2017-07-19T11:53:05.009Z,8124
2017-07-19T11:54:05.312Z,7408
2017-07-19T11:55:05.366Z,7144
2017-07-19T11:56:05.026Z,6596
2017-07-19T11:57:05.036Z,6024
2017-07-19T11:58:05.380Z,5676
2017-07-19T11:59:04.397Z,5488
2017-07-19T12:00:05.356Z,5428
2017-07-19T12:01:05.090Z,5416
2017-07-19T12:02:05.069Z,5660
2017-07-19T12:03:05.096Z,5720
2017-07-19T12:04:04.753Z,5820
2017-07-19T12:05:05.071Z,5884
2017-07-19T12:06:05.414Z,5752
2017-07-19T12:07:05.431Z,5504
2017-07-19T12:08:05.101Z,5160
2017-07-19T12:09:05.109Z,4848
2017-07-19T12:10:05.420Z,5200
2017-07-19T12:11:05.111Z,5380
2017-07-19T12:12:05.432Z,5592
2017-07-19T12:13:05.440Z,5876
2017-07-19T12:14:05.449Z,6232
2017-07-19T12:15:04.818Z,6544
2017-07-19T12:16:05.480Z,6876
2017-07-19T12:17:04.818Z,6736
2017-07-19T12:18:05.214Z,6312
2017-07-19T12:19:04.859Z,6120
2017-07-19T12:20:05.205Z,6284
2017-07-19T12:21:05.171Z,6760
2017-07-19T12:22:05.182Z,6944
2017-07-19T12:23:05.174Z,6692
2017-07-19T12:24:05.552Z,5996
2017-07-19T12:25:05.197Z,5424
2017-07-19T12:26:05.577Z,5276
2017-07-19T12:27:05.219Z,5108
2017-07-19T12:28:04.911Z,4916
2017-07-19T12:29:05.566Z,4876
2017-07-19T12:30:04.914Z,4944
2017-07-19T12:31:05.244Z,4988
2017-07-19T12:32:05.256Z,5020
2017-07-19T12:33:05.241Z,5036
2017-07-19T12:34:05.575Z,5088
2017-07-19T12:35:05.573Z,5184
2017-07-19T12:36:05.575Z,5260
2017-07-19T12:37:05.265Z,5352
2017-07-19T12:38:05.591Z,5180
2017-07-19T12:39:04.982Z,5244
2017-07-19T12:40:05.286Z,5212
2017-07-19T12:41:05.290Z,4968
2017-07-19T12:42:05.643Z,4788
2017-07-19T12:43:05.617Z,4740
2017-07-19T12:44:05.660Z,4788
2017-07-19T12:45:05.412Z,4844
2017-07-19T12:46:05.640Z,4976
2017-07-19T12:47:05.006Z,5256
2017-07-19T12:48:05.656Z,5716
2017-07-19T12:49:05.688Z,6188
2017-07-19T12:50:05.020Z,6700
2017-07-19T12:51:05.349Z,7756
2017-07-19T12:52:05.674Z,8928
2017-07-19T12:53:05.739Z,8472
2017-07-19T12:54:05.684Z,7488
2017-07-19T12:55:05.382Z,7684
2017-07-19T12:56:05.720Z,7280
2017-07-19T12:57:04.745Z,7996
2017-07-19T12:58:05.424Z,7848
2017-07-19T12:59:05.416Z,8536
2017-07-19T13:00:05.736Z,8308
2017-07-19T13:01:05.098Z,8156
2017-07-19T13:02:05.736Z,8112
2017-07-19T13:03:05.426Z,8168
2017-07-19T13:04:05.444Z,8156
2017-07-19T13:05:04.797Z,7828
2017-07-19T13:06:05.777Z,7444
2017-07-19T13:07:05.782Z,6444
2017-07-19T13:08:05.503Z,6380
2017-07-19T13:09:05.470Z,5580
2017-07-19T13:10:05.168Z,5236
2017-07-19T13:11:05.823Z,5292
2017-07-19T13:12:05.161Z,5196
2017-07-19T13:13:05.496Z,5288
2017-07-19T13:14:05.828Z,4792
2017-07-19T13:15:05.230Z,4956
2017-07-19T13:16:05.853Z,5064
2017-07-19T13:17:05.516Z,5336
2017-07-19T13:18:05.521Z,5468
2017-07-19T13:19:05.847Z,5600
2017-07-19T13:20:05.874Z,5832
2017-07-19T13:21:05.221Z,6248
2017-07-19T13:22:05.575Z,6404
2017-07-19T13:23:05.558Z,6552
2017-07-19T13:24:04.921Z,6472
2017-07-19T13:25:05.877Z,6344
2017-07-19T13:26:05.882Z,6352
2017-07-19T13:27:05.914Z,6776
2017-07-19T13:28:05.581Z,7264
2017-07-19T13:29:05.929Z,7660
2017-07-19T13:30:05.289Z,7688
2017-07-19T13:31:05.598Z,7660
2017-07-19T13:32:05.298Z,7580
2017-07-19T13:33:05.937Z,7384
2017-07-19T13:34:05.977Z,7196
2017-07-19T13:35:05.636Z,6968